Disclaimer

Please do not use the information listed here in-flight or in-navigation, as they are not provided to us by the airports but are provided by volunteers, so they might be outdated.

Search


Regions


Airport information page

Radio informations:
ANNECY TWR - 118.2 MHz
CHAMBERY APP - 123.7 MHz

Airport informations:
Latitude: 45° 55' 45.24" N
Longitude: 006° 05' 55.55" E
Elevation: 1521 feet - 464 meters
Operating hours: From sunrise to sunset (SR-SS)
Operating agency: Civil government, landing fees and diplomatic clearance may be required
Timezone: UTC+1(+2DT) - Last Sunday in March to last Sunday in October
Fuel: Jet A1, without icing nhibitor.

100/130 MIL Spec, low lead, aviation gasoline (BLUE)

Runway information:
04/22 - 5348 x 98 feet< - >1630 x 30 meters

Recent METARs:
LFLP 191700Z AUTO 04004KT 7000 -RA BKN012 BKN017 BKN027 02/00 Q1003 TEMPO 1200 SN VV///
LFLP 191730Z AUTO 05003KT 2900 SN BR BKN007 OVC015 01/00 Q1003 TEMPO 1200 SN VV///
LFLP 191800Z AUTO VRB02KT 3500 -SN BR FEW006 SCT012 BKN022 01/00 Q1003 TEMPO 1200 SN VV///

Airport on the map: